Time;durP1;ratioP1;P1;durP2;ratioP2;P2;SDS_P1;SDS_P2;PMS_P1;PMS_P2;Temp;Humidity;BMP_temperature;BMP_pressure;BME280_temperature;BME280_humidity;BME280_pressure;Samples;Min_cycle;Max_cycle;Signal;HPM_P1;HPM_P2
2023/04/30 00:00:30;;;;;;;13.95;9.05;;;;;;;12.03;62.48;94338.41;4216297;28;20051;-61
2023/04/30 00:02:32;;;;;;;16.25;8.65;;;;;;;11.73;63.61;94334.81;4214179;28;20075;-62
2023/04/30 00:04:34;;;;;;;13.60;9.20;;;;;;;11.54;64.26;94338.72;4219638;28;20385;-59
2023/04/30 00:06:35;;;;;;;16.38;8.77;;;;;;;11.41;64.45;94334.03;4219364;28;20429;-60
2023/04/30 00:08:37;;;;;;;16.10;9.00;;;;;;;11.41;65.00;94339.28;4210296;28;20147;-62
2023/04/30 00:10:39;;;;;;;13.13;8.02;;;;;;;11.40;64.50;94337.66;4215128;28;20054;-59
2023/04/30 00:12:40;;;;;;;14.43;9.05;;;;;;;11.55;64.28;94335.13;4215666;28;20047;-61
2023/04/30 00:14:42;;;;;;;17.10;8.73;;;;;;;11.70;64.06;94327.28;4224741;28;20089;-62
2023/04/30 00:16:44;;;;;;;11.82;8.65;;;;;;;11.89;63.20;94328.66;4215468;28;20670;-60
2023/04/30 00:18:45;;;;;;;12.10;8.40;;;;;;;12.04;62.28;94333.94;4211104;28;20044;-60
2023/04/30 00:20:47;;;;;;;14.77;8.07;;;;;;;12.13;61.83;94326.81;4211664;28;20074;-61
2023/04/30 00:22:48;;;;;;;12.32;8.15;;;;;;;12.22;61.37;94329.22;4217281;28;20474;-59
2023/04/30 00:24:50;;;;;;;16.70;8.32;;;;;;;12.29;60.84;94330.13;4213903;28;20040;-61
2023/04/30 00:26:52;;;;;;;15.85;8.60;;;;;;;12.34;61.03;94329.59;4212941;28;20044;-61
2023/04/30 00:28:54;;;;;;;10.95;8.18;;;;;;;12.37;60.77;94333.66;4222370;28;20598;-61
2023/04/30 00:30:55;;;;;;;16.13;8.23;;;;;;;12.41;60.91;94334.94;4213739;28;20525;-60
2023/04/30 00:32:57;;;;;;;13.82;8.70;;;;;;;12.42;60.86;94331.31;4223652;28;20438;-64
2023/04/30 00:34:59;;;;;;;12.93;8.10;;;;;;;12.45;60.82;94329.16;4223712;28;20131;-63
2023/04/30 00:37:00;;;;;;;13.55;8.65;;;;;;;12.49;60.68;94334.84;4224855;28;20131;-61
2023/04/30 00:39:02;;;;;;;15.80;8.07;;;;;;;12.49;60.41;94335.66;4218756;28;20055;-60
2023/04/30 00:41:04;;;;;;;14.38;8.40;;;;;;;12.50;60.31;94334.69;4211208;28;20103;-61
2023/04/30 00:43:06;;;;;;;14.15;7.93;;;;;;;12.55;60.15;94330.72;4210003;28;20374;-62
2023/04/30 00:45:08;;;;;;;15.95;8.75;;;;;;;12.56;60.56;94327.91;4215152;28;20456;-62
2023/04/30 00:47:09;;;;;;;14.77;8.13;;;;;;;12.54;60.34;94329.91;4216081;28;20054;-61
2023/04/30 00:49:11;;;;;;;15.02;8.43;;;;;;;12.54;60.50;94324.66;4225330;28;20055;-62
2023/04/30 00:51:13;;;;;;;11.63;8.07;;;;;;;12.54;60.42;94324.66;4214452;28;20055;-62
2023/04/30 00:53:15;;;;;;;15.00;8.38;;;;;;;12.54;60.43;94321.19;4217750;28;20071;-62
2023/04/30 00:55:17;;;;;;;14.43;8.30;;;;;;;12.49;60.45;94321.72;4218707;28;20059;-61
2023/04/30 00:57:19;;;;;;;14.77;8.60;;;;;;;12.45;60.53;94328.34;4219502;28;20047;-61
2023/04/30 00:59:21;;;;;;;10.70;7.40;;;;;;;12.41;60.47;94327.06;4222877;28;20048;-62
2023/04/30 01:01:24;;;;;;;11.13;8.00;;;;;;;12.38;60.71;94324.78;4222142;28;20075;-62
2023/04/30 01:03:27;;;;;;;11.57;7.45;;;;;;;12.38;60.63;94322.16;4213692;28;20585;-60
2023/04/30 01:05:29;;;;;;;14.70;7.20;;;;;;;12.36;60.77;94324.97;4228986;28;20152;-60
2023/04/30 01:07:31;;;;;;;11.68;8.23;;;;;;;12.33;61.53;94324.53;4216002;28;20273;-61
2023/04/30 01:09:33;;;;;;;15.93;8.80;;;;;;;12.26;62.03;94325.25;4218536;28;20048;-61
2023/04/30 01:11:46;;;;;;;12.52;9.05;;;;;;;12.15;62.23;94328.28;4213499;28;20080;-62
2023/04/30 01:14:07;;;;;;;13.55;8.45;;;;;;;12.07;62.69;94321.31;4224569;28;20079;-61
2023/04/30 01:16:15;;;;;;;14.43;9.27;;;;;;;12.01;62.80;94318.56;4219296;28;20052;-61
2023/04/30 01:19:10;;;;;;;14.07;8.73;;;;;;;12.04;62.50;94320.81;4215570;28;20131;-61
2023/04/30 01:21:14;;;;;;;13.45;9.18;;;;;;;12.06;62.52;94318.84;4211027;28;20068;-60
2023/04/30 01:23:30;;;;;;;13.90;8.85;;;;;;;12.07;62.64;94316.03;4217748;28;20131;-61
2023/04/30 01:25:38;;;;;;;13.52;8.73;;;;;;;12.05;62.51;94320.66;4210089;28;20059;-63
2023/04/30 01:28:05;;;;;;;14.30;9.05;;;;;;;12.03;62.66;94320.03;4222176;28;20100;-63
2023/04/30 01:30:08;;;;;;;18.00;8.65;;;;;;;12.02;62.81;94317.56;4214130;28;20490;-61
2023/04/30 01:32:10;;;;;;;15.23;8.60;;;;;;;12.02;63.04;94320.19;4217308;28;20048;-62
2023/04/30 01:34:11;;;;;;;15.68;9.10;;;;;;;12.02;62.97;94320.19;4222258;28;20052;-61
2023/04/30 01:36:51;;;;;;;12.75;8.68;;;;;;;11.98;62.75;94319.75;4224933;28;20048;-62
2023/04/30 01:39:05;;;;;;;12.45;8.35;;;;;;;11.97;63.23;94315.47;4206025;28;20530;-62
2023/04/30 01:41:40;;;;;;;11.88;8.32;;;;;;;11.97;63.25;94325.16;4226864;28;20446;-62
2023/04/30 01:43:49;;;;;;;14.00;8.43;;;;;;;11.95;62.80;94324.53;4200985;28;20135;-61
2023/04/30 01:46:06;;;;;;;14.45;8.18;;;;;;;11.95;62.94;94329.78;4222105;28;20055;-62
2023/04/30 01:48:19;;;;;;;12.75;7.88;;;;;;;11.89;63.06;94328.66;4226181;28;20040;-60
2023/04/30 01:50:38;;;;;;;11.77;7.25;;;;;;;11.85;63.14;94327.34;4224125;28;20071;-62
2023/04/30 01:52:49;;;;;;;14.57;7.20;;;;;;;11.83;63.40;94326.69;4206158;28;20490;-61
2023/04/30 01:54:55;;;;;;;10.82;7.45;;;;;;;11.80;63.09;94324.44;4236421;27;20126;-61
2023/04/30 01:57:05;;;;;;;11.40;7.53;;;;;;;11.80;63.11;94327.06;4225404;28;20040;-62
2023/04/30 01:59:08;;;;;;;12.60;7.85;;;;;;;11.79;62.73;94323.63;4224904;28;20563;-61
2023/04/30 02:01:27;;;;;;;11.25;8.20;;;;;;;11.78;62.51;94332.47;4217940;28;20048;-62
2023/04/30 02:03:29;;;;;;;11.27;8.35;;;;;;;11.78;62.54;94329.03;4217823;28;20130;-61
2023/04/30 02:05:31;;;;;;;13.40;7.65;;;;;;;11.76;62.60;94325.78;4226226;28;20078;-61
2023/04/30 02:07:38;;;;;;;14.80;9.07;;;;;;;11.69;62.77;94318.59;4227022;28;20071;-62
2023/04/30 02:09:40;;;;;;;13.75;8.25;;;;;;;11.65;63.19;94327.81;4215877;27;20056;-62
2023/04/30 02:11:41;;;;;;;17.02;9.43;;;;;;;11.69;63.05;94323.03;4223451;28;20044;-61
2023/04/30 02:13:43;;;;;;;14.10;9.35;;;;;;;11.75;62.79;94329.41;4224823;28;20111;-61
2023/04/30 02:15:44;;;;;;;12.82;9.32;;;;;;;11.73;62.96;94324.31;4222305;28;20040;-63
2023/04/30 02:17:46;;;;;;;15.55;8.88;;;;;;;11.76;62.67;94325.78;4220325;28;20496;-62
2023/04/30 02:19:48;;;;;;;18.33;9.15;;;;;;;11.75;62.58;94327.59;4212343;28;20050;-59
2023/04/30 02:21:50;;;;;;;13.70;9.10;;;;;;;11.77;62.71;94320.34;4223869;28;20134;-61
2023/04/30 02:23:51;;;;;;;13.57;8.20;;;;;;;11.79;62.81;94320.19;4216970;28;20513;-61
2023/04/30 02:25:53;;;;;;;13.77;8.65;;;;;;;11.79;62.69;94322.81;4221461;28;20048;-60
2023/04/30 02:27:55;;;;;;;14.45;9.20;;;;;;;11.79;62.79;94314.94;4223175;28;20055;-60
2023/04/30 02:29:57;;;;;;;15.02;9.45;;;;;;;11.80;62.69;94320.00;4222237;28;20086;-63
2023/04/30 02:31:59;;;;;;;13.23;9.32;;;;;;;11.81;62.46;94318.22;4208957;28;20056;-61
2023/04/30 02:34:01;;;;;;;14.13;9.55;;;;;;;11.80;62.71;94314.75;4226304;28;20181;-63
2023/04/30 02:36:03;;;;;;;18.33;9.77;;;;;;;11.83;62.66;94316.19;4226672;27;20060;-61
2023/04/30 02:38:04;;;;;;;16.25;9.50;;;;;;;11.86;62.44;94321.94;4216355;28;20469;-61
2023/04/30 02:40:07;;;;;;;12.85;8.95;;;;;;;11.86;62.75;94318.50;4223450;28;20057;-62
2023/04/30 02:42:08;;;;;;;11.57;8.70;;;;;;;11.88;62.51;94322.59;4220474;28;20048;-62
2023/04/30 02:44:10;;;;;;;13.88;9.15;;;;;;;11.89;62.32;94318.16;4223882;28;20100;-63
2023/04/30 02:46:12;;;;;;;14.20;9.20;;;;;;;11.86;62.54;94321.94;4220304;28;20060;-61
2023/04/30 02:48:14;;;;;;;16.05;9.88;;;;;;;11.84;62.50;94326.53;4219261;28;20090;-62
2023/04/30 02:50:16;;;;;;;15.13;9.80;;;;;;;11.86;62.48;94321.13;4211402;28;20051;-61
2023/04/30 02:52:17;;;;;;;17.85;9.93;;;;;;;11.86;62.56;94327.19;4219662;28;20102;-61
2023/04/30 02:54:19;;;;;;;14.60;9.90;;;;;;;11.88;62.62;94327.84;4218325;28;20092;-62
2023/04/30 02:56:21;;;;;;;13.18;9.80;;;;;;;11.87;62.93;94336.69;4212404;28;20052;-63
2023/04/30 02:58:23;;;;;;;16.63;10.00;;;;;;;11.90;63.02;94326.88;4213176;28;20040;-63
2023/04/30 03:00:25;;;;;;;14.23;9.77;;;;;;;11.87;62.80;94331.44;4212021;28;20102;-62
2023/04/30 03:02:26;;;;;;;17.52;10.13;;;;;;;11.86;62.81;94323.75;4220753;28;20082;-61
2023/04/30 03:04:28;;;;;;;14.05;9.68;;;;;;;11.82;63.16;94339.00;4225301;28;20087;-61
2023/04/30 03:06:30;;;;;;;14.05;9.73;;;;;;;11.82;63.08;94325.88;4202000;28;20052;-61
2023/04/30 03:08:32;;;;;;;14.70;9.45;;;;;;;11.86;63.32;94334.25;4217317;28;20046;-61
2023/04/30 03:10:34;;;;;;;18.45;9.82;;;;;;;11.88;63.32;94337.53;4216273;28;20052;-62
2023/04/30 03:12:35;;;;;;;16.75;10.88;;;;;;;11.89;63.14;94336.53;4223957;28;20507;-61
2023/04/30 03:14:37;;;;;;;16.25;10.00;;;;;;;11.83;63.06;94335.41;4223704;28;20048;-61
2023/04/30 03:16:40;;;;;;;13.82;10.15;;;;;;;11.86;62.91;94339.50;4211092;28;20490;-59
2023/04/30 03:18:42;;;;;;;17.92;11.02;;;;;;;11.88;63.16;94335.72;4221808;28;20366;-61
2023/04/30 03:20:44;;;;;;;14.88;9.93;;;;;;;11.93;63.15;94352.75;4221989;28;20051;-60
2023/04/30 03:22:45;;;;;;;18.33;10.07;;;;;;;11.88;62.92;94348.84;4224478;28;20485;-63
2023/04/30 03:24:47;;;;;;;14.68;10.32;;;;;;;11.91;62.74;94346.88;4225245;28;20047;-59
2023/04/30 03:26:48;;;;;;;15.55;10.70;;;;;;;11.85;62.85;94346.56;4225402;28;20079;-60
2023/04/30 03:28:50;;;;;;;16.52;10.27;;;;;;;11.82;62.64;94343.44;4223296;28;20237;-59
2023/04/30 03:30:51;;;;;;;17.23;9.75;;;;;;;11.82;62.77;94349.50;4212489;28;20402;-61
2023/04/30 03:32:53;;;;;;;16.25;10.80;;;;;;;11.81;62.97;94342.66;4218849;28;20108;-60
2023/04/30 03:34:55;;;;;;;16.02;10.75;;;;;;;11.89;63.08;94347.03;4224391;28;20398;-62
2023/04/30 03:36:57;;;;;;;14.50;10.48;;;;;;;11.92;62.64;94351.94;4212231;28;20152;-61
2023/04/30 03:38:59;;;;;;;18.17;11.23;;;;;;;11.93;62.47;94356.19;4222922;28;20128;-63
2023/04/30 03:41:00;;;;;;;15.73;10.20;;;;;;;11.93;62.65;94355.38;4226134;28;20051;-62
2023/04/30 03:43:02;;;;;;;15.50;9.80;;;;;;;11.97;62.39;94361.91;4226206;28;20075;-61
2023/04/30 03:45:04;;;;;;;17.15;10.75;;;;;;;11.98;62.24;94359.13;4226554;28;20188;-62
2023/04/30 03:47:05;;;;;;;16.38;10.05;;;;;;;11.93;62.66;94366.69;4222351;28;20089;-64
2023/04/30 03:49:07;;;;;;;16.15;10.27;;;;;;;11.95;62.50;94364.72;4214848;28;20052;-62
2023/04/30 03:51:09;;;;;;;16.33;10.40;;;;;;;12.00;62.51;94361.56;4226096;28;20390;-61
2023/04/30 03:53:11;;;;;;;18.38;9.70;;;;;;;12.05;62.62;94369.72;4226556;28;20452;-62
2023/04/30 03:55:12;;;;;;;15.75;9.63;;;;;;;12.08;62.28;94364.94;4225036;28;20143;-61
2023/04/30 03:57:14;;;;;;;13.85;10.20;;;;;;;12.16;61.96;94371.94;4222763;28;20139;-61
2023/04/30 03:59:16;;;;;;;15.10;10.20;;;;;;;12.17;62.08;94368.31;4211682;28;20066;-62
2023/04/30 04:01:18;;;;;;;17.05;10.52;;;;;;;12.17;62.24;94373.56;4212777;28;20044;-61
2023/04/30 04:03:19;;;;;;;15.00;10.50;;;;;;;12.19;61.96;94371.56;4215749;28;20130;-60
2023/04/30 04:05:21;;;;;;;14.85;10.05;;;;;;;12.24;61.98;94371.88;4212278;28;20137;-61
2023/04/30 04:07:23;;;;;;;19.85;11.27;;;;;;;12.20;61.74;94373.22;4212833;28;20048;-60
2023/04/30 04:09:25;;;;;;;15.80;10.43;;;;;;;12.05;62.40;94381.03;4213789;28;20052;-60
2023/04/30 04:11:26;;;;;;;18.80;11.63;;;;;;;11.99;62.71;94376.50;4211071;28;20044;-61
2023/04/30 04:13:28;;;;;;;16.85;10.80;;;;;;;11.99;62.33;94380.94;4212581;28;20059;-60
2023/04/30 04:15:30;;;;;;;20.02;10.95;;;;;;;11.99;62.40;94386.19;4211525;28;20524;-60
2023/04/30 04:17:31;;;;;;;17.60;11.10;;;;;;;11.97;62.64;94380.28;4212657;28;20036;-62
2023/04/30 04:19:33;;;;;;;16.73;10.93;;;;;;;11.98;62.27;94381.91;4224916;28;20588;-61
2023/04/30 04:21:35;;;;;;;16.23;9.60;;;;;;;11.79;62.47;94384.00;4224078;28;20051;-61
2023/04/30 04:23:37;;;;;;;17.60;10.63;;;;;;;11.77;62.55;94388.59;4224064;28;20062;-60
2023/04/30 04:25:40;;;;;;;15.60;10.02;;;;;;;11.74;62.52;94382.88;4212163;28;20084;-60
2023/04/30 04:27:42;;;;;;;17.75;10.23;;;;;;;11.65;62.32;94384.72;4224645;28;20082;-59
2023/04/30 04:29:43;;;;;;;13.15;8.95;;;;;;;11.57;62.67;94387.38;4224571;28;20067;-59
2023/04/30 04:31:47;;;;;;;15.27;9.77;;;;;;;11.51;62.51;94390.69;4203640;28;20055;-59
2023/04/30 04:33:56;;;;;;;14.05;9.68;;;;;;;11.36;63.07;94391.44;4220405;28;20044;-60
2023/04/30 04:35:58;;;;;;;15.38;9.82;;;;;;;11.39;63.51;94385.84;4218344;28;20074;-60
2023/04/30 04:38:00;;;;;;;18.15;9.93;;;;;;;11.48;62.86;94395.28;4224769;28;20449;-61
2023/04/30 04:40:03;;;;;;;16.05;9.85;;;;;;;11.52;62.78;94398.41;4221623;28;20135;-60
2023/04/30 04:42:05;;;;;;;11.65;8.75;;;;;;;11.35;62.67;94395.03;4222744;28;20524;-59
2023/04/30 04:44:07;;;;;;;15.43;10.57;;;;;;;11.12;63.45;94395.00;4225126;28;20044;-62
2023/04/30 04:46:09;;;;;;;18.52;10.73;;;;;;;10.79;65.04;94399.50;4219173;28;20143;-60
2023/04/30 04:48:14;;;;;;;21.30;10.88;;;;;;;10.77;65.55;94396.22;4228249;28;20075;-60
2023/04/30 04:50:16;;;;;;;21.17;11.48;;;;;;;10.94;65.10;94402.25;4226861;28;20095;-60
2023/04/30 04:52:18;;;;;;;18.55;11.30;;;;;;;11.12;64.56;94402.00;4227891;28;20051;-60
2023/04/30 04:54:20;;;;;;;16.90;10.85;;;;;;;11.31;63.87;94406.03;4229276;28;20564;-58
2023/04/30 04:56:21;;;;;;;18.38;11.63;;;;;;;11.40;63.48;94405.00;4228459;28;20055;-62
2023/04/30 04:58:23;;;;;;;16.95;11.90;;;;;;;11.43;63.45;94413.38;4219909;28;20156;-61
2023/04/30 05:00:25;;;;;;;18.55;10.70;;;;;;;11.52;63.42;94405.47;4217641;28;20044;-61
2023/04/30 05:02:26;;;;;;;15.23;10.07;;;;;;;11.60;63.06;94406.25;4222466;28;20100;-62
2023/04/30 05:04:29;;;;;;;14.55;10.68;;;;;;;11.65;62.54;94408.34;4228075;28;20156;-60
2023/04/30 05:06:30;;;;;;;16.38;10.85;;;;;;;11.68;62.10;94414.06;4203635;28;20047;-60
2023/04/30 05:08:32;;;;;;;20.02;10.90;;;;;;;11.60;62.33;94410.66;4229184;28;20043;-59
2023/04/30 05:10:34;;;;;;;19.67;11.25;;;;;;;11.59;62.72;94401.97;4227836;28;20063;-60
2023/04/30 05:12:35;;;;;;;17.83;11.90;;;;;;;11.63;62.45;94405.06;4226864;28;20055;-62
2023/04/30 05:14:37;;;;;;;20.45;10.18;;;;;;;11.52;62.06;94405.47;4228811;27;20421;-61
2023/04/30 05:16:39;;;;;;;14.45;10.95;;;;;;;11.44;62.49;94407.16;4227500;28;20571;-61
2023/04/30 05:18:41;;;;;;;14.45;10.18;;;;;;;11.44;62.72;94409.78;4227698;28;20465;-61
2023/04/30 05:20:42;;;;;;;14.50;9.95;;;;;;;11.44;62.84;94408.94;4226901;28;20109;-60
2023/04/30 05:22:44;;;;;;;16.08;9.75;;;;;;;11.44;62.92;94415.03;4217175;28;20047;-60
2023/04/30 05:24:45;;;;;;;14.32;9.75;;;;;;;11.41;62.79;94404.84;4228378;28;20051;-61
2023/04/30 05:26:47;;;;;;;12.38;8.95;;;;;;;11.44;62.84;94409.78;4228042;28;20051;-61
2023/04/30 05:28:51;;;;;;;16.75;9.10;;;;;;;11.50;63.04;94413.50;4224865;27;20048;-59
2023/04/30 05:30:52;;;;;;;16.80;9.63;;;;;;;11.47;63.21;94409.41;4209927;28;20041;-61
2023/04/30 05:32:55;;;;;;;15.60;9.65;;;;;;;11.47;63.09;94406.78;4214875;28;20558;-61
2023/04/30 05:34:57;;;;;;;14.88;9.52;;;;;;;11.47;62.71;94409.41;4229365;28;20464;-61
2023/04/30 05:37:00;;;;;;;11.60;8.55;;;;;;;11.53;62.47;94409.72;4226127;28;20051;-61
2023/04/30 05:39:02;;;;;;;12.80;9.13;;;;;;;11.58;62.54;94410.03;4222668;28;20043;-59
2023/04/30 05:41:03;;;;;;;13.65;8.52;;;;;;;11.60;62.29;94413.28;4215954;28;20043;-61
2023/04/30 05:43:05;;;;;;;13.90;8.82;;;;;;;11.72;62.23;94413.72;4229335;28;20055;-61
2023/04/30 05:45:07;;;;;;;15.57;8.75;;;;;;;11.90;62.11;94413.50;4228605;28;20047;-60
2023/04/30 05:47:09;;;;;;;15.85;9.23;;;;;;;12.11;62.40;94413.66;4210863;28;20060;-60
2023/04/30 05:49:10;;;;;;;17.65;8.70;;;;;;;12.34;61.93;94407.56;4228076;28;20052;-61
2023/04/30 05:51:12;;;;;;;15.95;8.57;;;;;;;12.47;60.95;94399.91;4226490;28;20082;-60
2023/04/30 05:53:14;;;;;;;13.77;8.43;;;;;;;12.60;59.88;94400.09;4228024;28;20076;-60
2023/04/30 05:55:16;;;;;;;12.23;9.18;;;;;;;12.73;59.46;94407.38;4226795;27;20047;-60
2023/04/30 05:57:17;;;;;;;18.02;8.82;;;;;;;12.78;59.47;94412.13;4221972;28;20324;-61
2023/04/30 05:59:19;;;;;;;15.25;9.35;;;;;;;12.85;59.23;94410.41;4212746;28;20153;-60
2023/04/30 06:01:22;;;;;;;20.15;12.35;;;;;;;12.84;58.68;94414.00;4225074;28;20083;-62
2023/04/30 06:03:23;;;;;;;15.02;9.65;;;;;;;12.89;58.75;94419.56;4227915;28;20128;-62
2023/04/30 06:05:25;;;;;;;14.15;9.57;;;;;;;12.87;58.14;94416.28;4228688;28;20097;-61
2023/04/30 06:07:27;;;;;;;15.40;9.18;;;;;;;12.89;58.50;94420.38;4227421;28;20677;-59
2023/04/30 06:09:29;;;;;;;15.02;9.10;;;;;;;12.94;58.63;94416.38;4217781;28;20048;-60
2023/04/30 06:11:31;;;;;;;18.55;9.85;;;;;;;12.90;58.41;94421.97;4228239;28;20048;-60
2023/04/30 06:13:32;;;;;;;15.27;9.45;;;;;;;12.85;58.70;94424.34;4219574;28;20170;-60
2023/04/30 06:15:34;;;;;;;14.90;9.85;;;;;;;12.74;58.56;94429.25;4223869;28;20632;-61
2023/04/30 06:17:36;;;;;;;16.25;10.38;;;;;;;12.63;58.91;94427.88;4208560;28;20052;-60
2023/04/30 06:19:38;;;;;;;18.98;10.07;;;;;;;12.45;59.41;94422.91;4216742;28;20445;-62
2023/04/30 06:21:39;;;;;;;16.13;9.68;;;;;;;12.53;59.56;94430.72;4220872;28;20044;-60
2023/04/30 06:23:41;;;;;;;13.90;9.80;;;;;;;12.65;59.80;94424.06;4226302;28;20051;-62
2023/04/30 06:25:42;;;;;;;20.02;13.38;;;;;;;12.80;59.67;94425.88;4226394;28;20048;-61
2023/04/30 06:27:45;;;;;;;17.35;9.95;;;;;;;12.87;58.85;94429.44;4221090;28;20072;-60
2023/04/30 06:29:46;;;;;;;18.50;10.18;;;;;;;12.88;58.85;94431.06;4222364;28;20454;-61
2023/04/30 06:31:48;;;;;;;20.00;9.38;;;;;;;12.86;58.73;94430.41;4203694;28;20060;-60
2023/04/30 06:33:50;;;;;;;14.02;9.38;;;;;;;12.72;59.01;94431.22;4226416;28;20153;-59
2023/04/30 06:35:54;;;;;;;15.75;10.20;;;;;;;12.54;59.47;94429.75;4227968;28;20130;-60
2023/04/30 06:37:55;;;;;;;18.23;10.43;;;;;;;12.63;59.51;94438.38;4225878;28;20123;-62
2023/04/30 06:39:57;;;;;;;14.13;9.07;;;;;;;12.57;59.31;94439.06;4224999;28;20607;-63
2023/04/30 06:41:59;;;;;;;18.15;10.18;;;;;;;12.62;59.08;94437.53;4227926;28;20044;-64
2023/04/30 06:44:00;;;;;;;14.55;9.48;;;;;;;12.63;59.43;94431.28;4226204;28;20048;-64
2023/04/30 06:46:02;;;;;;;18.80;10.25;;;;;;;12.79;59.33;94434.75;4227353;28;20637;-63
2023/04/30 06:48:04;;;;;;;16.30;9.73;;;;;;;13.02;58.80;94435.53;4220124;28;20052;-64
2023/04/30 06:50:06;;;;;;;18.08;9.50;;;;;;;13.32;58.32;94438.19;4227591;28;20134;-62
2023/04/30 06:52:08;;;;;;;22.05;14.93;;;;;;;13.60;56.75;94435.72;4212178;28;20158;-65
2023/04/30 06:54:10;;;;;;;39.75;26.08;;;;;;;13.80;56.92;94438.56;4227276;28;20074;-63
2023/04/30 06:56:12;;;;;;;18.10;10.68;;;;;;;13.99;55.90;94439.00;4227040;28;20055;-63
2023/04/30 06:58:13;;;;;;;16.90;11.30;;;;;;;14.13;55.77;94444.22;4215311;28;20044;-63
2023/04/30 07:00:15;;;;;;;14.88;10.05;;;;;;;14.21;55.12;94440.63;4227268;28;20079;-62
2023/04/30 07:02:17;;;;;;;17.15;10.40;;;;;;;14.27;54.80;94434.63;4225890;28;20059;-63
2023/04/30 07:04:23;;;;;;;20.10;10.63;;;;;;;14.15;55.25;94436.09;4224000;28;20520;-64
2023/04/30 07:06:25;;;;;;;19.25;11.15;;;;;;;14.19;55.46;94436.56;4225151;28;20144;-62
2023/04/30 07:08:27;;;;;;;17.90;11.50;;;;;;;14.34;55.44;94427.56;4227881;28;20036;-61
2023/04/30 07:10:30;;;;;;;19.58;10.98;;;;;;;14.49;55.06;94435.41;4228276;28;20059;-62
2023/04/30 07:12:31;;;;;;;18.20;12.63;;;;;;;14.47;55.06;94437.41;4225176;28;20051;-63
2023/04/30 07:14:33;;;;;;;17.52;12.10;;;;;;;14.39;54.92;94434.94;4204067;28;20047;-63
2023/04/30 07:16:34;;;;;;;25.63;13.32;;;;;;;14.25;55.43;94441.88;4219177;28;20122;-61
2023/04/30 07:18:36;;;;;;;21.15;13.65;;;;;;;14.30;55.68;94436.88;4220815;28;20583;-64
2023/04/30 07:20:38;;;;;;;22.20;13.23;;;;;;;14.38;55.81;94438.56;4225220;28;20153;-63
2023/04/30 07:22:44;;;;;;;21.35;12.05;;;;;;;14.46;55.55;94437.63;4214721;28;20052;-61
2023/04/30 07:24:46;;;;;;;21.77;12.23;;;;;;;14.58;55.08;94441.41;4225581;28;20096;-61
2023/04/30 07:26:48;;;;;;;18.30;11.88;;;;;;;14.69;55.08;94434.78;4226670;28;20051;-63
2023/04/30 07:28:49;;;;;;;18.20;11.20;;;;;;;14.69;54.81;94438.28;4223116;28;20072;-62
2023/04/30 07:30:52;;;;;;;21.05;10.93;;;;;;;14.65;54.88;94439.66;4219780;28;20553;-64
2023/04/30 07:32:53;;;;;;;27.23;12.75;;;;;;;14.67;54.93;94435.00;4211471;28;20058;-63
2023/04/30 07:34:55;;;;;;;21.92;12.77;;;;;;;14.59;54.81;94444.88;4211752;28;20441;-64
2023/04/30 07:36:56;;;;;;;18.77;11.98;;;;;;;14.64;54.71;94451.19;4211907;28;20048;-63
2023/04/30 07:38:58;;;;;;;32.83;14.07;;;;;;;14.67;54.53;94442.06;4222986;28;20048;-63
2023/04/30 07:41:01;;;;;;;36.47;16.35;;;;;;;14.50;54.92;94444.97;4223788;28;20056;-62
2023/04/30 07:43:03;;;;;;;29.02;13.68;;;;;;;14.56;55.23;94442.59;4223175;28;20417;-61
2023/04/30 07:45:06;;;;;;;18.10;12.18;;;;;;;14.52;54.90;94442.97;4222397;28;20100;-63
2023/04/30 07:47:08;;;;;;;24.55;11.77;;;;;;;14.59;55.09;94455.41;4218334;28;20052;-64
2023/04/30 07:49:10;;;;;;;18.55;9.40;;;;;;;14.39;54.81;94447.28;4224556;28;20039;-64
2023/04/30 07:51:12;;;;;;;19.83;10.40;;;;;;;14.08;55.97;94454.47;4221780;28;20104;-63
2023/04/30 07:53:13;;;;;;;11.75;7.28;;;;;;;14.10;55.05;94444.56;4220169;28;20047;-62
2023/04/30 07:55:15;;;;;;;17.33;8.07;;;;;;;14.36;55.15;94450.31;4220279;28;20079;-63
2023/04/30 07:57:17;;;;;;;12.75;7.32;;;;;;;14.53;54.89;94441.94;4225833;28;20144;-63
2023/04/30 07:59:20;;;;;;;13.10;7.00;;;;;;;14.69;54.29;94438.28;4226657;28;20401;-63
2023/04/30 08:01:21;;;;;;;12.52;6.85;;;;;;;14.79;53.74;94442.38;4221991;28;20800;-61
2023/04/30 08:03:23;;;;;;;9.98;6.55;;;;;;;14.87;53.81;94444.91;4226243;28;20516;-63
2023/04/30 08:05:26;;;;;;;13.50;5.85;;;;;;;15.01;53.26;94445.78;4226542;28;20142;-64
2023/04/30 08:07:27;;;;;;;13.63;5.50;;;;;;;15.09;52.78;94443.81;4225319;28;20131;-62
2023/04/30 08:09:30;;;;;;;9.52;5.10;;;;;;;15.10;52.80;94453.38;4226256;28;20519;-63
2023/04/30 08:11:31;;;;;;;8.15;4.90;;;;;;;15.14;52.52;94445.88;4226353;28;20106;-64
2023/04/30 08:13:33;;;;;;;11.18;5.13;;;;;;;15.20;52.75;94450.38;4219668;28;20052;-63
2023/04/30 08:15:36;;;;;;;11.45;5.18;;;;;;;15.10;52.21;94453.38;4225551;28;20055;-63
2023/04/30 08:17:38;;;;;;;10.75;5.35;;;;;;;15.20;52.54;94457.50;4227773;28;20100;-62
2023/04/30 08:19:39;;;;;;;7.35;4.65;;;;;;;15.19;52.31;94455.88;4228635;27;20043;-68
2023/04/30 08:21:41;;;;;;;9.55;4.90;;;;;;;15.19;52.37;94456.69;4227496;28;20090;-64
2023/04/30 08:23:43;;;;;;;9.07;5.10;;;;;;;15.18;52.16;94457.66;4227355;28;20516;-64
2023/04/30 08:25:44;;;;;;;7.93;4.35;;;;;;;15.28;51.98;94459.97;4228835;28;21391;-62
2023/04/30 08:27:46;;;;;;;6.95;4.72;;;;;;;15.30;51.38;94460.59;4229255;28;20168;-62
2023/04/30 08:29:48;;;;;;;8.75;4.88;;;;;;;15.02;51.45;94463.25;4229857;27;20089;-61
2023/04/30 08:31:49;;;;;;;8.43;4.93;;;;;;;15.20;51.56;94460.94;4204607;28;20068;-62
2023/04/30 08:33:51;;;;;;;9.82;4.50;;;;;;;15.31;50.94;94457.75;4230006;28;20044;-61
2023/04/30 08:35:53;;;;;;;7.63;4.07;;;;;;;15.41;50.66;94449.50;4223913;28;20040;-61
2023/04/30 08:37:55;;;;;;;10.25;5.68;;;;;;;15.50;49.98;94458.88;4224069;28;20124;-60
2023/04/30 08:39:57;;;;;;;8.63;4.38;;;;;;;15.62;49.50;94445.16;4224907;28;20467;-62
2023/04/30 08:42:02;;;;;;;9.32;4.03;;;;;;;15.69;49.50;94451.25;4219842;28;20082;-61
2023/04/30 08:44:04;;;;;;;6.80;3.95;;;;;;;15.83;49.29;94455.63;4217833;28;20048;-61
2023/04/30 08:46:12;;;;;;;7.63;3.70;;;;;;;15.80;49.08;94450.72;4222060;28;20459;-61
2023/04/30 08:48:15;;;;;;;8.38;4.07;;;;;;;15.87;48.64;94446.28;4215801;28;20040;-60
2023/04/30 08:50:17;;;;;;;8.75;4.10;;;;;;;16.04;48.37;94448.56;4218921;28;20584;-61
2023/04/30 08:52:19;;;;;;;5.70;3.60;;;;;;;16.28;48.30;94447.19;4220942;28;20083;-59
2023/04/30 08:54:21;;;;;;;11.55;3.95;;;;;;;16.56;47.66;94442.59;4220807;28;20112;-62
2023/04/30 08:56:24;;;;;;;7.90;3.42;;;;;;;15.93;47.86;94434.91;4218351;28;20048;-62
2023/04/30 08:58:26;;;;;;;10.30;4.40;;;;;;;15.94;48.92;94433.91;4225687;28;20497;-64
2023/04/30 09:00:27;;;;;;;8.93;4.38;;;;;;;16.19;47.86;94433.38;4220398;28;20076;-60
2023/04/30 09:02:31;;;;;;;8.02;4.25;;;;;;;16.34;47.44;94434.00;4228205;28;20055;-64
2023/04/30 09:04:33;;;;;;;7.15;4.00;;;;;;;16.45;46.50;94424.66;4227419;28;20052;-63
2023/04/30 09:06:35;;;;;;;6.13;3.75;;;;;;;16.78;46.14;94422.03;4211439;28;20048;-63
2023/04/30 09:08:49;;;;;;;5.40;3.63;;;;;;;16.91;45.56;94417.81;4221467;28;20085;-62
2023/04/30 09:10:51;;;;;;;4.47;2.80;;;;;;;16.67;44.78;94414.72;4228096;28;20092;-63
2023/04/30 09:13:06;;;;;;;5.22;3.45;;;;;;;16.49;45.12;94417.16;4227370;28;20043;-64
2023/04/30 09:15:08;;;;;;;4.95;3.40;;;;;;;16.61;46.00;94415.53;4221219;28;20048;-64
2023/04/30 09:17:20;;;;;;;6.15;3.80;;;;;;;16.98;45.50;94410.66;4224070;28;20043;-61
2023/04/30 09:19:24;;;;;;;6.20;3.55;;;;;;;16.91;45.28;94401.94;4205679;28;20095;-60
2023/04/30 09:21:33;;;;;;;5.90;3.38;;;;;;;17.23;44.76;94402.88;4221716;28;20102;-61
2023/04/30 09:23:35;;;;;;;6.88;3.80;;;;;;;17.48;45.01;94399.53;4213133;28;20044;-61
2023/04/30 09:25:41;;;;;;;4.65;3.78;;;;;;;17.72;43.51;94400.69;4225180;28;20044;-62
2023/04/30 09:27:44;;;;;;;5.95;3.75;;;;;;;17.58;43.96;94397.28;4227531;28;20104;-61
2023/04/30 09:29:45;;;;;;;6.05;3.47;;;;;;;17.87;44.13;94388.00;4229428;28;20401;-61
2023/04/30 09:31:47;;;;;;;4.57;3.50;;;;;;;18.16;43.29;94391.13;4216146;28;20172;-61